Dades meteomassalio
Diari Summary for Juny 9, 2017 Units:  Metric    English   Both
« Previous Day
Next Day »
Diari Semanal Mensual Anual Personalitzat
  Maxima: Minima: Mijana:
Temperatura: 30.9 °C 16.9 °C 24.1 °C
Rosada: 17.9 °C 10.9 °C 15.8 °C
Humitat: 90 % 40 % 62 %
Velocitat del vent: 31.5 km/h 0.0 km/h 5.9 km/h
Racha vent: 31.5 km/h - -
Vent:- - East
Pressio: 1015.1 hPa 1012.1 hPa -
Pluja: 0.0 mm    
Historical Graphs
 
 
Tabular Data for Juny 9, 2017
Time Temperature Dew Point Pressure Wind Wind Speed Wind Gust Humidity Rainfall Rate (Hourly) solar Conditions
00:03 23.7 °C 11.7 °C 1012.4 hPa SSE 13.0 km/h 13.0 km/h 47 % 0.0 mm 0.0 W/m2 CLR
00:08 23.7 °C 11.7 °C 1012.4 hPa SE 13.0 km/h 13.0 km/h 47 % 0.0 mm 0.0 W/m2 CLR
00:13 23.8 °C 11.4 °C 1012.4 hPa SSE 5.6 km/h 5.6 km/h 46 % 0.0 mm 0.0 W/m2 CLR
00:18 23.8 °C 11.2 °C 1012.4 hPa SSE 5.6 km/h 5.6 km/h 45 % 0.0 mm 0.0 W/m2 CLR
00:23 23.8 °C 11.2 °C 1012.4 hPa South 7.4 km/h 7.4 km/h 45 % 0.0 mm 0.0 W/m2 CLR
00:28 23.8 °C 11.2 °C 1012.4 hPa SSE 6.4 km/h 6.4 km/h 45 % 0.0 mm 0.0 W/m2 CLR
00:33 23.9 °C 10.9 °C 1012.4 hPa Calm     44 % 0.0 mm 0.0 W/m2 CLR
00:38 23.9 °C 10.9 °C 1012.4 hPa Calm     44 % 0.0 mm 0.0 W/m2 CLR
00:43 23.9 °C 11.2 °C 1012.8 hPa Calm     45 % 0.0 mm 0.0 W/m2 CLR
00:48 23.8 °C 11.1 °C 1012.8 hPa Calm     45 % 0.0 mm 0.0 W/m2 CLR
00:53 23.7 °C 11.7 °C 1012.8 hPa Calm     47 % 0.0 mm 0.0 W/m2 CLR
00:54 23.7 °C 11.7 °C 1013.1 hPa Calm     47 % 0.0 mm 0.0 W/m2 CLR
00:59 23.6 °C 12.2 °C 1013.1 hPa ENE 5.6 km/h 5.6 km/h 49 % 0.0 mm 0.0 W/m2 CLR
01:04 23.0 °C 13.7 °C 1013.1 hPa Calm     56 % 0.0 mm 0.0 W/m2 CLR
01:09 22.3 °C 14.2 °C 1013.1 hPa NNE 6.4 km/h 6.4 km/h 60 % 0.0 mm 0.0 W/m2 CLR
01:14 21.8 °C 14.7 °C 1013.1 hPa NE 11.1 km/h 11.1 km/h 64 % 0.0 mm 0.0 W/m2 CLR
01:19 21.1 °C 15.7 °C 1013.4 hPa NE 31.5 km/h 31.5 km/h 71 % 0.0 mm 0.0 W/m2 CLR
01:24 20.3 °C 15.8 °C 1013.4 hPa ENE 19.3 km/h 19.3 km/h 75 % 0.0 mm 0.0 W/m2 CLR
01:29 20.0 °C 16.1 °C 1013.4 hPa NE 16.7 km/h 16.7 km/h 78 % 0.0 mm 0.0 W/m2 CLR
01:34 19.7 °C 16.0 °C 1013.4 hPa ENE 1.6 km/h 1.6 km/h 79 % 0.0 mm 0.0 W/m2 CLR
01:39 19.6 °C 16.0 °C 1013.8 hPa NE 3.2 km/h 3.2 km/h 80 % 0.0 mm 0.0 W/m2 CLR
01:44 19.4 °C 16.1 °C 1013.8 hPa Calm     81 % 0.0 mm 0.0 W/m2 CLR
01:49 19.3 °C 16.2 °C 1013.8 hPa Calm     82 % 0.0 mm 0.0 W/m2 CLR
01:54 19.3 °C 16.1 °C 1013.8 hPa Calm     82 % 0.0 mm 0.0 W/m2 CLR
01:59 19.2 °C 16.3 °C 1013.8 hPa Calm     83 % 0.0 mm 0.0 W/m2 CLR
02:04 19.1 °C 16.2 °C 1013.8 hPa Calm     83 % 0.0 mm 0.0 W/m2 CLR
02:09 19.1 °C 16.1 °C 1013.8 hPa Calm     83 % 0.0 mm 0.0 W/m2 CLR
02:14 19.0 °C 16.2 °C 1013.8 hPa Calm     84 % 0.0 mm 0.0 W/m2 CLR
02:19 18.9 °C 16.1 °C 1013.8 hPa Calm     84 % 0.0 mm 0.0 W/m2 CLR
02:24 18.8 °C 16.3 °C 1013.4 hPa Calm     85 % 0.0 mm 0.0 W/m2 CLR
02:29 18.8 °C 16.3 °C 1013.4 hPa Calm     85 % 0.0 mm 0.0 W/m2 CLR
02:34 18.8 °C 16.2 °C 1013.8 hPa Calm     85 % 0.0 mm 0.0 W/m2 CLR
02:39 18.8 °C 16.2 °C 1013.4 hPa Calm     85 % 0.0 mm 0.0 W/m2 CLR
02:44 18.7 °C 16.3 °C 1013.8 hPa Calm     86 % 0.0 mm 0.0 W/m2 CLR
02:49 18.7 °C 16.3 °C 1014.1 hPa Calm     86 % 0.0 mm 0.0 W/m2 CLR
02:54 18.7 °C 16.3 °C 1014.1 hPa Calm     86 % 0.0 mm 0.0 W/m2 CLR
02:59 18.6 °C 16.2 °C 1014.1 hPa Calm     86 % 0.0 mm 0.0 W/m2 CLR
03:04 18.6 °C 16.2 °C 1013.8 hPa Calm     86 % 0.0 mm 0.0 W/m2 CLR
03:09 18.6 °C 16.2 °C 1013.4 hPa Calm     86 % 0.0 mm 0.0 W/m2 CLR
03:14 18.7 °C 16.3 °C 1013.4 hPa Calm     86 % 0.0 mm 0.0 W/m2 CLR
03:19 18.7 °C 16.3 °C 1013.1 hPa Calm     86 % 0.0 mm 0.0 W/m2 CLR
03:24 18.6 °C 16.2 °C 1013.4 hPa Calm     86 % 0.0 mm 0.0 W/m2 CLR
03:29 18.6 °C 16.2 °C 1013.4 hPa Calm     86 % 0.0 mm 0.0 W/m2 CLR
03:34 18.6 °C 16.3 °C 1013.4 hPa Calm     87 % 0.0 mm 0.0 W/m2 CLR
03:39 18.6 °C 16.3 °C 1013.4 hPa Calm     87 % 0.0 mm 0.0 W/m2 CLR
03:44 18.6 °C 16.3 °C 1013.1 hPa Calm     87 % 0.0 mm 0.0 W/m2 CLR
03:49 18.6 °C 16.3 °C 1013.1 hPa Calm     87 % 0.0 mm 0.0 W/m2 CLR
03:54 18.6 °C 16.4 °C 1013.1 hPa Calm     87 % 0.0 mm 0.0 W/m2 CLR
03:59 18.6 °C 16.2 °C 1012.8 hPa Calm     86 % 0.0 mm 0.0 W/m2 CLR
04:04 18.6 °C 16.2 °C 1013.1 hPa Calm     86 % 0.0 mm 0.0 W/m2 CLR
04:09 18.5 °C 16.3 °C 1013.1 hPa Calm     87 % 0.0 mm 0.0 W/m2 CLR
04:14 18.4 °C 16.2 °C 1013.1 hPa Calm     87 % 0.0 mm 0.0 W/m2 CLR
04:16 18.4 °C 16.2 °C 1012.8 hPa Calm     87 % 0.0 mm 0.0 W/m2 CLR
04:21 18.4 °C 16.2 °C 1012.8 hPa Calm     87 % 0.0 mm 0.0 W/m2 CLR
04:26 18.3 °C 16.1 °C 1012.8 hPa Calm     87 % 0.0 mm 0.0 W/m2 CLR
04:31 18.2 °C 16.0 °C 1012.8 hPa Calm     87 % 0.0 mm 0.0 W/m2 CLR
04:36 18.2 °C 16.0 °C 1012.8 hPa Calm     87 % 0.0 mm 0.0 W/m2 CLR
04:41 18.1 °C 15.9 °C 1012.8 hPa Calm     87 % 0.0 mm 0.0 W/m2 CLR
04:46 18.1 °C 15.8 °C 1012.8 hPa Calm     87 % 0.0 mm 0.0 W/m2 CLR
04:51 17.9 °C 15.9 °C 1012.8 hPa Calm     88 % 0.0 mm 0.0 W/m2 CLR
04:56 17.9 °C 15.9 °C 1012.8 hPa Calm     88 % 0.0 mm 0.0 W/m2 CLR
05:01 17.8 °C 15.8 °C 1013.1 hPa Calm     88 % 0.0 mm 0.0 W/m2 CLR
05:06 17.8 °C 15.8 °C 1013.1 hPa Calm     88 % 0.0 mm 0.0 W/m2 CLR
05:11 17.8 °C 15.8 °C 1013.1 hPa Calm     88 % 0.0 mm 0.0 W/m2 CLR
05:16 17.8 °C 15.8 °C 1013.1 hPa Calm     88 % 0.0 mm 0.0 W/m2 CLR
05:21 17.7 °C 15.7 °C 1013.1 hPa Calm     88 % 0.0 mm 0.0 W/m2 CLR
05:26 17.7 °C 15.7 °C 1013.4 hPa Calm     88 % 0.0 mm 0.0 W/m2 CLR
05:31 17.7 °C 15.7 °C 1013.4 hPa Calm     88 % 0.0 mm 0.0 W/m2 CLR
05:36 17.7 °C 15.7 °C 1013.4 hPa Calm     88 % 0.0 mm 0.0 W/m2 CLR
05:41 17.7 °C 15.7 °C 1013.4 hPa Calm     88 % 0.0 mm 0.0 W/m2 CLR
05:46 17.7 °C 15.7 °C 1013.8 hPa Calm     88 % 0.0 mm 0.0 W/m2 CLR
05:51 17.7 °C 15.7 °C 1013.8 hPa Calm     88 % 0.0 mm 0.0 W/m2 CLR
05:56 17.6 °C 15.6 °C 1013.8 hPa Calm     88 % 0.0 mm 0.0 W/m2 CLR
06:01 17.6 °C 15.6 °C 1013.8 hPa Calm     88 % 0.0 mm 0.0 W/m2 CLR
06:11 17.5 °C 15.7 °C 1013.8 hPa Calm     89 % 0.0 mm 0.0 W/m2 CLR
06:16 17.4 °C 15.6 °C 1013.8 hPa Calm     89 % 0.0 mm 0.0 W/m2 CLR
06:21 17.4 °C 15.6 °C 1013.8 hPa Calm     89 % 0.0 mm 0.0 W/m2 OVC
06:26 17.2 °C 15.4 °C 1013.8 hPa Calm     89 % 0.0 mm 0.0 W/m2 OVC
06:31 17.1 °C 15.3 °C 1013.8 hPa Calm     89 % 0.0 mm 0.0 W/m2 OVC
06:36 17.1 °C 15.3 °C 1013.8 hPa Calm     89 % 0.0 mm 5.0 W/m2 OVC
06:41 17.1 °C 15.2 °C 1013.8 hPa Calm     89 % 0.0 mm 5.0 W/m2 OVC
06:46 17.0 °C 15.3 °C 1013.8 hPa Calm     90 % 0.0 mm 7.0 W/m2 BKN
06:51 16.9 °C 15.3 °C 1013.8 hPa Calm     90 % 0.0 mm 12.0 W/m2 BKN
06:56 16.9 °C 15.3 °C 1013.8 hPa Calm     90 % 0.0 mm 19.0 W/m2 BKN
07:01 16.9 °C 15.3 °C 1013.8 hPa Calm     90 % 0.0 mm 26.0 W/m2 BKN
07:06 16.9 °C 15.2 °C 1013.8 hPa Calm     90 % 0.0 mm 33.0 W/m2 BKN
07:11 16.9 °C 15.2 °C 1013.8 hPa Calm     90 % 0.0 mm 39.0 W/m2 BKN
07:16 16.9 °C 15.2 °C 1014.1 hPa Calm     90 % 0.0 mm 47.0 W/m2 SCT
07:21 17.0 °C 15.3 °C 1014.1 hPa Calm     90 % 0.0 mm 67.0 W/m2 SCT
07:26 17.1 °C 15.4 °C 1014.1 hPa Calm     90 % 0.0 mm 77.0 W/m2 FEW
07:31 17.1 °C 15.4 °C 1014.1 hPa Calm     90 % 0.0 mm 93.0 W/m2 FEW
07:36 17.2 °C 15.6 °C 1014.1 hPa Calm     90 % 0.0 mm 109.0 W/m2 CLR
07:41 17.4 °C 15.8 °C 1014.1 hPa Calm     90 % 0.0 mm 127.0 W/m2 CLR
07:46 17.7 °C 15.9 °C 1014.1 hPa Calm     89 % 0.0 mm 137.0 W/m2 CLR
07:51 17.9 °C 15.9 °C 1014.1 hPa Calm     88 % 0.0 mm 149.0 W/m2 CLR
07:56 18.2 °C 16.2 °C 1014.1 hPa Calm     88 % 0.0 mm 167.0 W/m2 CLR
08:01 18.6 °C 16.3 °C 1014.1 hPa Calm     87 % 0.0 mm 186.0 W/m2 CLR
08:06 18.9 °C 16.3 °C 1014.1 hPa Calm     85 % 0.0 mm 199.0 W/m2 CLR
08:11 19.2 °C 16.4 °C 1014.1 hPa Calm     84 % 0.0 mm 213.0 W/m2 CLR
08:16 19.5 °C 16.3 °C 1014.1 hPa Calm     82 % 0.0 mm 227.0 W/m2 CLR
08:17 19.6 °C 16.4 °C 1014.1 hPa Calm     82 % 0.0 mm 236.0 W/m2 CLR
08:22 19.7 °C 16.4 °C 1014.1 hPa Calm     81 % 0.0 mm 253.0 W/m2 CLR
08:27 20.0 °C 16.4 °C 1014.1 hPa Calm     80 % 0.0 mm 264.0 W/m2 CLR
08:32 20.3 °C 16.7 °C 1014.1 hPa Calm     80 % 0.0 mm 272.0 W/m2 CLR
08:37 20.7 °C 16.7 °C 1014.4 hPa Calm     78 % 0.0 mm 285.0 W/m2 CLR
08:42 20.9 °C 16.9 °C 1014.1 hPa Calm     78 % 0.0 mm 302.0 W/m2 CLR
08:47 21.2 °C 16.8 °C 1014.4 hPa Calm     76 % 0.0 mm 316.0 W/m2 CLR
08:52 21.4 °C 16.8 °C 1014.4 hPa Calm     75 % 0.0 mm 332.0 W/m2 CLR
08:58 21.7 °C 16.9 °C 1014.4 hPa Calm     74 % 0.0 mm 348.0 W/m2 CLR
09:03 21.9 °C 16.9 °C 1014.4 hPa Calm     73 % 0.0 mm 385.0 W/m2 CLR
09:08 22.2 °C 16.7 °C 1014.4 hPa Calm     71 % 0.0 mm 404.0 W/m2 CLR
09:13 22.4 °C 16.7 °C 1014.4 hPa Calm     70 % 0.0 mm 410.0 W/m2 CLR
09:18 22.8 °C 16.1 °C 1014.4 hPa Calm     66 % 0.0 mm 434.0 W/m2 CLR
09:23 22.9 °C 16.3 °C 1014.4 hPa Calm     66 % 0.0 mm 455.0 W/m2 CLR
09:28 23.2 °C 16.7 °C 1014.4 hPa Calm     67 % 0.0 mm 476.0 W/m2 CLR
09:33 23.3 °C 16.8 °C 1014.4 hPa Calm     67 % 0.0 mm 427.0 W/m2 CLR
09:38 23.3 °C 16.8 °C 1014.4 hPa Calm     67 % 0.0 mm 446.0 W/m2 CLR
09:43 23.3 °C 17.1 °C 1014.4 hPa NE 7.4 km/h 7.4 km/h 68 % 0.0 mm 529.0 W/m2 CLR
09:48 23.3 °C 17.3 °C 1014.4 hPa NE 5.6 km/h 5.6 km/h 69 % 0.0 mm 480.0 W/m2 CLR
09:53 23.4 °C 17.2 °C 1014.4 hPa NE 4.8 km/h 4.8 km/h 68 % 0.0 mm 399.0 W/m2 CLR
09:58 23.4 °C 16.7 °C 1014.4 hPa Calm     66 % 0.0 mm 401.0 W/m2 CLR
10:03 23.6 °C 16.9 °C 1014.4 hPa Calm     66 % 0.0 mm 596.0 W/m2 CLR
10:08 23.8 °C 16.8 °C 1014.4 hPa ENE 9.3 km/h 9.3 km/h 65 % 0.0 mm 457.0 W/m2 CLR
10:13 23.8 °C 17.1 °C 1014.8 hPa ENE 1.9 km/h 3.4 km/h 66 % 0.0 mm 555.0 W/m2 CLR
10:18 24.1 °C 17.1 °C 1014.8 hPa Calm     65 % 0.0 mm 473.0 W/m2 CLR
10:23 24.2 °C 17.0 °C 1014.8 hPa Calm     64 % 0.0 mm 548.0 W/m2 CLR
10:28 24.3 °C 17.1 °C 1014.8 hPa NNE 7.4 km/h   64 % 0.0 mm 624.0 W/m2 CLR
10:33 24.5 °C 17.2 °C 1014.8 hPa NE 5.6 km/h 5.6 km/h 64 % 0.0 mm 612.0 W/m2 CLR
10:38 24.6 °C 17.3 °C 1014.8 hPa NE 5.6 km/h 5.6 km/h 64 % 0.0 mm 582.0 W/m2 CLR
10:43 24.7 °C 17.4 °C 1014.8 hPa ENE 7.4 km/h   64 % 0.0 mm 526.0 W/m2 CLR
10:48 24.8 °C 17.3 °C 1014.8 hPa NE 5.6 km/h 5.6 km/h 63 % 0.0 mm 568.0 W/m2 CLR
10:53 24.8 °C 17.0 °C 1014.8 hPa Calm     62 % 0.0 mm 584.0 W/m2 CLR
10:58 24.8 °C 17.3 °C 1014.4 hPa Calm     63 % 0.0 mm 605.0 W/m2 CLR
11:03 24.8 °C 17.3 °C 1014.4 hPa NNE 5.6 km/h 5.6 km/h 63 % 0.0 mm 628.0 W/m2 CLR
11:08 24.9 °C 17.6 °C 1014.4 hPa Calm     64 % 0.0 mm 585.0 W/m2 CLR
11:13 25.2 °C 17.4 °C 1014.4 hPa Calm     62 % 0.0 mm 670.0 W/m2 CLR
11:18 25.4 °C 17.1 °C 1014.4 hPa Calm     60 % 0.0 mm 675.0 W/m2 CLR
11:23 25.6 °C 17.6 °C 1014.4 hPa NE 7.4 km/h 7.4 km/h 61 % 0.0 mm 675.0 W/m2 CLR
11:28 25.8 °C 17.5 °C 1014.4 hPa NE 9.3 km/h 9.3 km/h 60 % 0.0 mm 566.0 W/m2 CLR
11:33 25.8 °C 17.4 °C 1014.4 hPa Calm     60 % 0.0 mm 686.0 W/m2 CLR
11:38 25.9 °C 17.3 °C 1014.4 hPa Calm     59 % 0.0 mm 564.0 W/m2 CLR
11:43 26.2 °C 17.8 °C 1014.4 hPa NE 5.6 km/h 5.6 km/h 60 % 0.0 mm 619.0 W/m2 CLR
11:48 26.3 °C 17.4 °C 1014.4 hPa Calm     58 % 0.0 mm 603.0 W/m2 CLR
11:53 26.2 °C 17.3 °C 1014.4 hPa North 13.0 km/h 13.0 km/h 58 % 0.0 mm 696.0 W/m2 CLR
11:58 26.3 °C 17.3 °C 1014.4 hPa NE 9.7 km/h 9.7 km/h 58 % 0.0 mm 738.0 W/m2 CLR
12:03 26.2 °C 17.3 °C 1014.4 hPa North 7.4 km/h 7.4 km/h 58 % 0.0 mm 759.0 W/m2 CLR
12:08 26.2 °C 17.3 °C 1014.4 hPa North 6.4 km/h 6.4 km/h 58 % 0.0 mm 650.0 W/m2 CLR
12:13 26.4 °C 17.2 °C 1014.4 hPa NE 9.3 km/h 9.3 km/h 57 % 0.0 mm 780.0 W/m2 CLR
12:18 26.7 °C 17.2 °C 1014.4 hPa NNE 5.6 km/h 5.6 km/h 56 % 0.0 mm 759.0 W/m2 CLR
12:23 27.0 °C 17.5 °C 1014.4 hPa NE 13.0 km/h 13.0 km/h 56 % 0.0 mm 786.0 W/m2 CLR
12:28 27.1 °C 16.9 °C 1014.4 hPa ENE 11.1 km/h 11.1 km/h 54 % 0.0 mm 828.0 W/m2 CLR
12:33 27.3 °C 16.9 °C 1014.4 hPa ENE 14.8 km/h 14.8 km/h 53 % 0.0 mm 812.0 W/m2 CLR
12:38 27.4 °C 16.9 °C 1014.1 hPa ENE 16.7 km/h 16.7 km/h 53 % 0.0 mm 751.0 W/m2 CLR
12:43 27.3 °C 16.3 °C 1014.4 hPa NNE 5.6 km/h 5.6 km/h 51 % 0.0 mm 795.0 W/m2 CLR
12:48 27.3 °C 16.6 °C 1014.4 hPa NE 7.4 km/h 7.4 km/h 52 % 0.0 mm 853.0 W/m2 CLR
12:53 27.4 °C 16.3 °C 1014.4 hPa ENE 13.0 km/h 13.0 km/h 51 % 0.0 mm 868.0 W/m2 CLR
12:58 27.5 °C 16.2 °C 1014.4 hPa ENE 7.4 km/h 7.4 km/h 50 % 0.0 mm 763.0 W/m2 CLR
13:03 27.6 °C 16.5 °C 1014.4 hPa North 11.3 km/h 11.3 km/h 51 % 0.0 mm 867.0 W/m2 CLR
13:08 27.8 °C 16.1 °C 1014.1 hPa Calm     49 % 0.0 mm 851.0 W/m2 CLR
13:13 27.8 °C 16.4 °C 1014.1 hPa North 11.1 km/h 11.1 km/h 50 % 0.0 mm 828.0 W/m2 CLR
13:18 27.9 °C 16.6 °C 1014.1 hPa NNE 13.0 km/h 13.0 km/h 50 % 0.0 mm 684.0 W/m2 CLR
13:23 27.8 °C 16.4 °C 1014.1 hPa Calm     50 % 0.0 mm 626.0 W/m2 CLR
13:28 27.8 °C 16.8 °C 1014.1 hPa Calm     51 % 0.0 mm 770.0 W/m2 CLR
13:33 28.2 °C 16.8 °C 1014.1 hPa NNE 9.3 km/h 9.3 km/h 50 % 0.0 mm 809.0 W/m2 CLR
13:38 28.3 °C 16.6 °C 1014.1 hPa Calm     49 % 0.0 mm 798.0 W/m2 CLR
13:43 28.4 °C 16.9 °C 1013.8 hPa NNE 11.1 km/h 11.1 km/h 50 % 0.0 mm 911.0 W/m2 CLR
13:48 28.6 °C 16.8 °C 1013.8 hPa ENE 9.3 km/h 9.3 km/h 49 % 0.0 mm 872.0 W/m2 CLR
13:53 28.7 °C 16.9 °C 1013.8 hPa NNE 5.6 km/h 5.6 km/h 49 % 0.0 mm 914.0 W/m2 CLR
13:58 28.6 °C 16.8 °C 1013.8 hPa NNE 11.1 km/h 11.1 km/h 49 % 0.0 mm 940.0 W/m2 CLR
14:03 28.8 °C 17.6 °C 1013.8 hPa Calm     51 % 0.0 mm 744.0 W/m2 CLR
14:08 29.2 °C 17.1 °C 1013.8 hPa North 13.0 km/h 13.0 km/h 48 % 0.0 mm 803.0 W/m2 CLR
14:13 29.2 °C 17.1 °C 1013.8 hPa North 13.0 km/h 13.0 km/h 48 % 0.0 mm 870.0 W/m2 CLR
14:18 29.4 °C 17.3 °C 1013.8 hPa Calm     48 % 0.0 mm 833.0 W/m2 CLR
14:23 29.6 °C 16.8 °C 1013.4 hPa SE 7.4 km/h 7.4 km/h 46 % 0.0 mm 874.0 W/m2 CLR
14:28 29.6 °C 17.1 °C 1013.4 hPa ESE 7.4 km/h 7.4 km/h 47 % 0.0 mm 891.0 W/m2 CLR
14:33 29.7 °C 16.4 °C 1013.4 hPa SE 5.6 km/h 5.6 km/h 45 % 0.0 mm 889.0 W/m2 CLR
14:38 29.6 °C 17.1 °C 1013.4 hPa ENE 5.6 km/h 5.6 km/h 47 % 0.0 mm 889.0 W/m2 CLR
14:43 29.8 °C 17.3 °C 1013.4 hPa ENE 18.5 km/h 18.5 km/h 47 % 0.0 mm 909.0 W/m2 CLR
14:48 29.8 °C 17.3 °C 1013.4 hPa ESE 1.9 km/h   47 % 0.0 mm 900.0 W/m2 CLR
14:53 30.0 °C 17.8 °C 1013.4 hPa ESE 5.6 km/h 5.6 km/h 48 % 0.0 mm 889.0 W/m2 CLR
14:58 30.2 °C 17.3 °C 1013.4 hPa SSE 14.8 km/h 14.8 km/h 46 % 0.0 mm 803.0 W/m2 CLR
15:03 29.9 °C 17.4 °C 1013.4 hPa East 18.5 km/h 18.5 km/h 47 % 0.0 mm 909.0 W/m2 CLR
15:08 29.9 °C 17.4 °C 1013.4 hPa ESE 12.9 km/h 12.9 km/h 47 % 0.0 mm 919.0 W/m2 CLR
15:13 30.1 °C 17.2 °C 1013.1 hPa ESE 14.5 km/h 14.5 km/h 46 % 0.0 mm 884.0 W/m2 CLR
15:18 29.9 °C 17.4 °C 1013.1 hPa NE 14.8 km/h 14.8 km/h 47 % 0.0 mm 905.0 W/m2 CLR
15:23 30.1 °C 17.2 °C 1013.1 hPa East 14.8 km/h 14.8 km/h 46 % 0.0 mm 758.0 W/m2 CLR
15:28 30.1 °C 17.9 °C 1013.1 hPa ENE 13.0 km/h 13.0 km/h 48 % 0.0 mm 807.0 W/m2 CLR
15:33 30.3 °C 17.7 °C 1013.1 hPa ESE 18.5 km/h 18.5 km/h 47 % 0.0 mm 865.0 W/m2 CLR
15:38 30.2 °C 17.6 °C 1013.1 hPa ESE 11.1 km/h 11.1 km/h 47 % 0.0 mm 816.0 W/m2 CLR
15:43 30.3 °C 17.0 °C 1013.1 hPa ESE 14.8 km/h 14.8 km/h 45 % 0.0 mm 816.0 W/m2 CLR
15:48 30.2 °C 17.3 °C 1013.1 hPa ENE 3.7 km/h 3.7 km/h 46 % 0.0 mm 821.0 W/m2 CLR
15:54 30.4 °C 17.2 °C 1013.1 hPa East 16.7 km/h 16.7 km/h 45 % 0.0 mm 747.0 W/m2 CLR
15:59 29.9 °C 17.1 °C 1013.1 hPa NNE 9.3 km/h 9.3 km/h 46 % 0.0 mm 577.0 W/m2 CLR
16:04 30.0 °C 17.1 °C 1013.1 hPa NE 16.7 km/h 16.7 km/h 46 % 0.0 mm 823.0 W/m2 CLR
16:09 30.2 °C 16.9 °C 1013.1 hPa ENE 16.7 km/h 16.7 km/h 45 % 0.0 mm 807.0 W/m2 CLR
16:14 30.4 °C 16.8 °C 1012.8 hPa ENE 18.5 km/h 18.5 km/h 44 % 0.0 mm 819.0 W/m2 CLR
16:19 30.4 °C 16.8 °C 1012.8 hPa ENE 18.5 km/h 18.5 km/h 44 % 0.0 mm 693.0 W/m2 CLR
16:24 30.6 °C 16.6 °C 1012.8 hPa ENE 16.7 km/h 16.7 km/h 43 % 0.0 mm 726.0 W/m2 CLR
16:29 30.5 °C 16.5 °C 1012.8 hPa NE 16.7 km/h 16.7 km/h 43 % 0.0 mm 584.0 W/m2 CLR
16:34 30.7 °C 16.7 °C 1012.8 hPa East 16.7 km/h 16.7 km/h 43 % 0.0 mm 721.0 W/m2 CLR
16:39 30.6 °C 16.6 °C 1012.8 hPa ENE 20.4 km/h 20.4 km/h 43 % 0.0 mm 803.0 W/m2 CLR
16:40 30.6 °C 16.6 °C 1012.8 hPa East 24.1 km/h 24.1 km/h 43 % 0.0 mm 803.0 W/m2 CLR
16:45 30.5 °C 16.5 °C 1012.8 hPa East 14.8 km/h 14.8 km/h 43 % 0.0 mm 427.0 W/m2 CLR
16:50 30.5 °C 16.5 °C 1012.8 hPa ENE 16.7 km/h 16.7 km/h 43 % 0.0 mm 649.0 W/m2 CLR
16:53 30.5 °C 16.5 °C 1012.8 hPa NE 20.4 km/h 20.4 km/h 43 % 0.0 mm 473.0 W/m2 CLR
16:58 30.6 °C 16.6 °C 1012.8 hPa ENE 11.1 km/h 11.1 km/h 43 % 0.0 mm 754.0 W/m2 CLR
17:03 30.8 °C 17.2 °C 1012.4 hPa East 7.4 km/h 7.4 km/h 44 % 0.0 mm 740.0 W/m2 CLR
17:05 30.8 °C 16.8 °C 1012.8 hPa East 18.5 km/h 18.5 km/h 43 % 0.0 mm 721.0 W/m2 CLR
17:10 30.9 °C 17.2 °C 1012.8 hPa East 5.6 km/h 5.6 km/h 44 % 0.0 mm 691.0 W/m2 CLR
17:15 30.8 °C 16.8 °C 1012.4 hPa East 18.5 km/h 18.5 km/h 43 % 0.0 mm 640.0 W/m2 CLR
17:20 30.7 °C 16.7 °C 1012.4 hPa ESE 16.1 km/h 16.1 km/h 43 % 0.0 mm 631.0 W/m2 CLR
17:25 30.7 °C 16.7 °C 1012.4 hPa SE 14.8 km/h 14.8 km/h 43 % 0.0 mm 612.0 W/m2 CLR
17:30 30.8 °C 16.8 °C 1012.4 hPa ESE 20.9 km/h 20.9 km/h 43 % 0.0 mm 622.0 W/m2 CLR
17:35 30.6 °C 15.8 °C 1012.4 hPa SE 24.1 km/h 24.1 km/h 41 % 0.0 mm 615.0 W/m2 CLR
17:40 30.5 °C 15.8 °C 1012.4 hPa SE 18.5 km/h 18.5 km/h 41 % 0.0 mm 592.0 W/m2 CLR
17:45 30.4 °C 15.7 °C 1012.4 hPa ESE 24.1 km/h 24.1 km/h 41 % 0.0 mm 575.0 W/m2 CLR
17:50 30.4 °C 15.7 °C 1012.4 hPa ESE 22.2 km/h 22.2 km/h 41 % 0.0 mm 552.0 W/m2 CLR
17:55 30.3 °C 15.6 °C 1012.4 hPa ESE 20.4 km/h 20.4 km/h 41 % 0.0 mm 541.0 W/m2 CLR
18:00 30.3 °C 15.6 °C 1012.4 hPa SE 18.5 km/h 18.5 km/h 41 % 0.0 mm 529.0 W/m2 CLR
18:05 30.3 °C 15.6 °C 1012.4 hPa ESE 24.1 km/h 24.1 km/h 41 % 0.0 mm 517.0 W/m2 CLR
18:10 30.5 °C 16.1 °C 1012.4 hPa SE 18.5 km/h 18.5 km/h 42 % 0.0 mm 503.0 W/m2 CLR
18:15 30.4 °C 15.3 °C 1012.4 hPa ESE 20.4 km/h 20.4 km/h 40 % 0.0 mm 478.0 W/m2 CLR
18:20 30.3 °C 15.6 °C 1012.4 hPa SE 27.8 km/h 27.8 km/h 41 % 0.0 mm 466.0 W/m2 CLR
18:25 30.2 °C 15.5 °C 1012.1 hPa ESE 20.4 km/h 20.4 km/h 41 % 0.0 mm 450.0 W/m2 CLR
18:30 30.2 °C 15.4 °C 1012.4 hPa ESE 18.5 km/h 18.5 km/h 41 % 0.0 mm 445.0 W/m2 CLR
18:35 30.2 °C 15.9 °C 1012.4 hPa ESE 18.5 km/h 18.5 km/h 42 % 0.0 mm 439.0 W/m2 CLR
18:41 30.1 °C 15.3 °C 1012.4 hPa East 22.2 km/h 22.2 km/h 41 % 0.0 mm 411.0 W/m2 CLR
18:45 30.1 °C 15.8 °C 1012.4 hPa ESE 13.0 km/h 13.0 km/h 42 % 0.0 mm 403.0 W/m2 CLR
18:51 30.1 °C 15.7 °C 1012.4 hPa SE 20.4 km/h 20.4 km/h 42 % 0.0 mm 383.0 W/m2 CLR
18:56 29.8 °C 15.9 °C 1012.4 hPa ESE 18.5 km/h 18.5 km/h 43 % 0.0 mm 366.0 W/m2 CLR
19:01 29.7 °C 15.8 °C 1012.4 hPa SE 16.7 km/h 16.7 km/h 43 % 0.0 mm 352.0 W/m2 CLR
19:06 29.7 °C 15.8 °C 1012.4 hPa SE 16.7 km/h 16.7 km/h 43 % 0.0 mm 334.0 W/m2 CLR
19:11 29.5 °C 15.2 °C 1012.4 hPa SE 18.5 km/h 18.5 km/h 42 % 0.0 mm 322.0 W/m2 CLR
19:16 29.3 °C 15.4 °C 1012.4 hPa SE 18.5 km/h 18.5 km/h 43 % 0.0 mm 309.0 W/m2 CLR
19:21 29.1 °C 14.5 °C 1012.4 hPa SE 18.5 km/h 18.5 km/h 41 % 0.0 mm 297.0 W/m2 CLR
19:26 29.1 °C 14.5 °C 1012.8 hPa ESE 18.5 km/h 18.5 km/h 41 % 0.0 mm 276.0 W/m2 CLR
19:31 29.0 °C 14.1 °C 1012.8 hPa ESE 16.7 km/h 16.7 km/h 40 % 0.0 mm 258.0 W/m2 CLR
19:36 28.9 °C 14.3 °C 1012.8 hPa ESE 17.7 km/h 17.7 km/h 41 % 0.0 mm 237.0 W/m2 CLR
19:41 28.8 °C 14.2 °C 1012.8 hPa SSE 16.7 km/h 16.7 km/h 41 % 0.0 mm 218.0 W/m2 CLR
19:46 28.8 °C 13.8 °C 1012.8 hPa SE 13.0 km/h 13.0 km/h 40 % 0.0 mm 192.0 W/m2 CLR
19:51 28.7 °C 13.7 °C 1012.8 hPa SE 16.7 km/h 16.7 km/h 40 % 0.0 mm 169.0 W/m2 CLR
19:56 28.5 °C 13.9 °C 1012.8 hPa SSE 14.5 km/h 14.5 km/h 41 % 0.0 mm 151.0 W/m2 CLR
20:01 28.3 °C 14.2 °C 1012.8 hPa SE 14.8 km/h 14.8 km/h 42 % 0.0 mm 141.0 W/m2 CLR
20:06 28.2 °C 14.1 °C 1012.8 hPa SE 9.3 km/h 9.3 km/h 42 % 0.0 mm 128.0 W/m2 CLR
20:11 28.1 °C 13.9 °C 1013.1 hPa SE 16.7 km/h 16.7 km/h 42 % 0.0 mm 118.0 W/m2 CLR
20:16 28.0 °C 14.3 °C 1012.8 hPa SE 4.8 km/h 4.8 km/h 43 % 0.0 mm 107.0 W/m2 CLR
20:21 27.9 °C 14.2 °C 1013.1 hPa ESE 9.7 km/h 9.8 km/h 43 % 0.0 mm 98.0 W/m2 CLR
20:26 27.7 °C 13.9 °C 1013.1 hPa SE 14.8 km/h 14.8 km/h 43 % 0.0 mm 91.0 W/m2 CLR
20:31 27.5 °C 14.2 °C 1013.1 hPa SE 7.4 km/h 7.4 km/h 44 % 0.0 mm 79.0 W/m2 FEW
20:32 27.5 °C 14.2 °C 1013.1 hPa ESE 5.6 km/h 5.6 km/h 44 % 0.0 mm 83.0 W/m2 FEW
20:37 27.4 °C 14.1 °C 1013.1 hPa SSE 14.8 km/h 14.8 km/h 44 % 0.0 mm 72.0 W/m2 FEW
20:42 27.2 °C 13.9 °C 1013.1 hPa SE 11.1 km/h 11.1 km/h 44 % 0.0 mm 62.0 W/m2 SCT
20:47 27.1 °C 14.1 °C 1013.4 hPa SE 7.4 km/h 7.4 km/h 45 % 0.0 mm 44.0 W/m2 BKN
20:52 26.9 °C 13.9 °C 1013.4 hPa Calm     45 % 0.0 mm 42.0 W/m2 BKN
20:57 26.8 °C 13.9 °C 1013.4 hPa Calm     45 % 0.0 mm 37.0 W/m2 BKN
21:02 26.7 °C 14.7 °C 1013.4 hPa Calm     48 % 0.0 mm 30.0 W/m2 BKN
21:07 26.4 °C 14.8 °C 1013.4 hPa Calm     49 % 0.0 mm 25.0 W/m2 BKN
21:12 25.9 °C 15.0 °C 1013.4 hPa Calm     51 % 0.0 mm 19.0 W/m2 BKN
21:17 25.5 °C 14.9 °C 1013.8 hPa Calm     52 % 0.0 mm 14.0 W/m2 BKN
21:22 25.3 °C 14.7 °C 1013.8 hPa ESE 7.4 km/h 7.4 km/h 52 % 0.0 mm 9.0 W/m2 BKN
21:27 25.1 °C 14.8 °C 1013.8 hPa Calm     53 % 0.0 mm 0.0 W/m2 OVC
21:32 24.9 °C 14.3 °C 1013.8 hPa Calm     52 % 0.0 mm 0.0 W/m2 OVC
21:37 24.7 °C 14.2 °C 1013.8 hPa Calm     52 % 0.0 mm 0.0 W/m2 OVC
21:42 24.6 °C 14.4 °C 1013.8 hPa Calm     53 % 0.0 mm 0.0 W/m2 CLR
21:47 24.5 °C 14.3 °C 1014.1 hPa Calm     53 % 0.0 mm 0.0 W/m2 CLR
21:52 24.3 °C 14.4 °C 1014.1 hPa Calm     54 % 0.0 mm 0.0 W/m2 CLR
21:57 24.1 °C 14.2 °C 1014.1 hPa Calm     54 % 0.0 mm 0.0 W/m2 CLR
22:02 23.8 °C 14.5 °C 1014.1 hPa Calm     56 % 0.0 mm 0.0 W/m2 CLR
22:07 23.7 °C 14.4 °C 1014.1 hPa Calm     56 % 0.0 mm 0.0 W/m2 CLR
22:12 23.5 °C 14.5 °C 1014.1 hPa Calm     57 % 0.0 mm 0.0 W/m2 CLR
22:17 23.3 °C 14.6 °C 1014.1 hPa Calm     58 % 0.0 mm 0.0 W/m2 CLR
22:22 23.1 °C 14.6 °C 1014.4 hPa Calm     59 % 0.0 mm 0.0 W/m2 CLR
22:27 22.9 °C 14.4 °C 1014.4 hPa Calm     59 % 0.0 mm 0.0 W/m2 CLR
22:32 22.7 °C 14.6 °C 1014.4 hPa Calm     60 % 0.0 mm 0.0 W/m2 CLR
22:37 22.6 °C 14.4 °C 1014.4 hPa Calm     60 % 0.0 mm 0.0 W/m2 CLR
22:42 22.4 °C 14.5 °C 1014.8 hPa Calm     61 % 0.0 mm 0.0 W/m2 CLR
22:47 22.3 °C 14.4 °C 1014.8 hPa Calm     61 % 0.0 mm 0.0 W/m2 CLR
22:52 22.2 °C 14.6 °C 1014.8 hPa Calm     62 % 0.0 mm 0.0 W/m2 CLR
22:57 22.1 °C 14.2 °C 1014.8 hPa Calm     61 % 0.0 mm 0.0 W/m2 CLR
23:02 22.1 °C 14.2 °C 1014.8 hPa Calm     61 % 0.0 mm 0.0 W/m2 CLR
23:07 22.1 °C 14.2 °C 1014.8 hPa Calm     61 % 0.0 mm 0.0 W/m2 CLR
23:12 22.1 °C 14.2 °C 1014.8 hPa Calm     61 % 0.0 mm 0.0 W/m2 CLR
23:17 22.1 °C 14.2 °C 1014.8 hPa Calm     61 % 0.0 mm 0.0 W/m2 CLR
23:22 22.1 °C 14.2 °C 1014.8 hPa Calm     61 % 0.0 mm 0.0 W/m2 CLR
23:27 22.1 °C 14.2 °C 1014.8 hPa Calm     61 % 0.0 mm 0.0 W/m2 CLR
23:28 22.0 °C 14.1 °C 1014.8 hPa Calm     61 % 0.0 mm 0.0 W/m2 CLR
23:33 21.9 °C 14.1 °C 1014.8 hPa Calm     61 % 0.0 mm 0.0 W/m2 CLR
23:38 22.0 °C 13.9 °C 1015.1 hPa Calm     60 % 0.0 mm 0.0 W/m2 CLR
23:43 22.0 °C 14.1 °C 1015.1 hPa Calm     61 % 0.0 mm 0.0 W/m2 CLR
23:48 22.0 °C 14.1 °C 1015.1 hPa Calm     61 % 0.0 mm 0.0 W/m2 CLR
23:53 21.9 °C 14.5 °C 1015.1 hPa Calm     63 % 0.0 mm 0.0 W/m2 CLR
23:58 21.6 °C 14.3 °C 1015.1 hPa ESE 5.6 km/h   63 % 0.0 mm 0.0 W/m2 CLR
Lo Temps de Massalio
Compliments of Weather Underground - 1.25 mb